createdAt,value
2022-12-24T00:00:57.761Z,45.65
2022-12-24T00:04:00.847Z,39.33
2022-12-24T00:07:04.004Z,64.03
2022-12-24T00:10:08.901Z,66.20
2022-12-24T00:13:14.131Z,113.05
2022-12-24T00:16:17.258Z,45.05
2022-12-24T00:19:20.030Z,41.03
2022-12-24T00:22:22.986Z,39.42
2022-12-24T00:25:25.654Z,65.45
2022-12-24T00:28:28.688Z,62.33
2022-12-24T00:31:31.444Z,38.72
2022-12-24T00:34:34.432Z,39.53
2022-12-24T00:37:37.175Z,54.95
2022-12-24T00:40:39.983Z,85.90
2022-12-24T00:43:42.676Z,140.77
2022-12-24T00:46:45.668Z,91.60
2022-12-24T00:49:48.290Z,97.50
2022-12-24T00:52:51.469Z,69.03
2022-12-24T00:55:53.985Z,47.62
2022-12-24T00:58:56.957Z,37.75
2022-12-24T01:02:00.070Z,62.08
2022-12-24T01:05:12.714Z,58.63
2022-12-24T01:08:15.414Z,87.05
2022-12-24T01:11:19.027Z,152.32
2022-12-24T01:14:22.246Z,113.00
2022-12-24T01:17:25.134Z,254.40
2022-12-24T01:20:31.703Z,167.63
2022-12-24T01:23:34.804Z,211.18
2022-12-24T01:26:37.294Z,112.32
2022-12-24T01:29:40.205Z,315.12
2022-12-24T01:32:43.168Z,363.15
2022-12-24T01:35:46.029Z,241.23
2022-12-24T01:38:48.749Z,301.52
2022-12-24T01:42:10.767Z,304.27
2022-12-24T01:45:52.513Z,133.90
2022-12-24T01:49:02.653Z,56.17
2022-12-24T01:52:07.803Z,61.33
2022-12-24T01:55:14.621Z,46.83
2022-12-24T01:58:18.134Z,47.38
2022-12-24T02:01:21.473Z,46.53
2022-12-24T02:04:51.563Z,47.45
2022-12-24T02:07:54.244Z,44.33
2022-12-24T02:10:58.123Z,55.78
2022-12-24T02:14:01.396Z,130.98
2022-12-24T02:17:33.187Z,116.35
2022-12-24T02:21:03.769Z,49.70
2022-12-24T02:24:28.701Z,93.20
2022-12-24T02:27:55.598Z,116.22
2022-12-24T02:31:02.831Z,52.50
2022-12-24T02:34:20.092Z,49.42
2022-12-24T02:37:37.181Z,54.67
2022-12-24T02:40:54.344Z,63.97
2022-12-24T02:43:57.623Z,55.70
2022-12-24T02:47:01.172Z,125.65
2022-12-24T02:50:07.302Z,56.78
2022-12-24T02:53:15.298Z,51.50
2022-12-24T02:56:30.322Z,53.07
2022-12-24T02:59:57.852Z,53.78
2022-12-24T03:03:16.812Z,58.80
2022-12-24T03:06:55.228Z,58.10
2022-12-24T03:10:03.925Z,65.60
2022-12-24T03:13:16.902Z,63.23
2022-12-24T03:16:23.756Z,66.90
2022-12-24T03:19:27.585Z,68.32
2022-12-24T03:22:32.818Z,65.53
2022-12-24T03:25:38.383Z,70.75
2022-12-24T03:28:41.401Z,145.03
2022-12-24T03:31:52.059Z,105.10
2022-12-24T03:34:55.202Z,86.65
2022-12-24T03:37:57.913Z,81.15
2022-12-24T03:41:06.457Z,94.20
2022-12-24T03:44:09.013Z,67.47
2022-12-24T03:47:11.922Z,67.37
2022-12-24T03:50:14.619Z,126.60
2022-12-24T03:53:17.553Z,101.90
2022-12-24T03:56:20.786Z,253.18
2022-12-24T03:59:23.632Z,174.93
2022-12-24T04:02:26.463Z,125.70
2022-12-24T04:05:29.369Z,121.90
2022-12-24T04:08:32.307Z,71.97
2022-12-24T04:11:35.651Z,58.85
2022-12-24T04:14:38.221Z,51.43
2022-12-24T04:17:41.211Z,54.70
2022-12-24T04:20:46.765Z,53.35
2022-12-24T04:23:50.257Z,58.45
2022-12-24T04:26:52.864Z,49.92
2022-12-24T04:29:55.744Z,52.93
2022-12-24T04:32:58.232Z,54.13
2022-12-24T04:36:02.404Z,52.15
2022-12-24T04:39:05.001Z,56.25
2022-12-24T04:42:08.511Z,50.72
2022-12-24T04:45:11.266Z,49.20
2022-12-24T04:48:14.209Z,50.70
2022-12-24T04:51:17.548Z,50.72
2022-12-24T04:54:21.010Z,48.65
2022-12-24T04:57:23.631Z,52.67
2022-12-24T05:00:27.293Z,51.70
2022-12-24T05:03:30.264Z,51.72
2022-12-24T05:06:33.610Z,50.65
2022-12-24T05:09:36.222Z,47.08
2022-12-24T05:12:39.742Z,50.08
2022-12-24T05:15:42.382Z,43.87
2022-12-24T05:18:45.532Z,51.00
2022-12-24T05:22:08.366Z,51.58
2022-12-24T05:25:29.621Z,55.12
2022-12-24T05:28:32.162Z,56.20
2022-12-24T05:31:36.160Z,54.23
2022-12-24T05:34:38.792Z,51.88
2022-12-24T05:37:41.883Z,51.72
2022-12-24T05:40:51.012Z,48.67
2022-12-24T05:43:54.248Z,50.78
2022-12-24T05:46:56.813Z,51.57
2022-12-24T05:49:59.757Z,57.97
2022-12-24T05:53:02.446Z,53.97
2022-12-24T05:56:13.856Z,55.35
2022-12-24T05:59:16.826Z,254.68
2022-12-24T06:02:19.719Z,75.10
2022-12-24T06:05:23.339Z,62.35
2022-12-24T06:08:26.622Z,56.83
2022-12-24T06:11:30.384Z,48.80
2022-12-24T06:14:33.208Z,66.87
2022-12-24T06:17:36.182Z,71.87
2022-12-24T06:20:42.642Z,60.65
2022-12-24T06:23:46.499Z,55.83
2022-12-24T06:26:49.194Z,50.25
2022-12-24T06:29:52.461Z,57.95
2022-12-24T06:32:55.172Z,63.20
2022-12-24T06:35:58.336Z,63.45
2022-12-24T06:39:01.143Z,54.08
2022-12-24T06:42:04.673Z,50.00
2022-12-24T06:45:08.740Z,49.33
2022-12-24T06:48:11.961Z,39.83
2022-12-24T06:51:15.747Z,32.15
2022-12-24T06:54:18.760Z,41.95
2022-12-24T06:57:21.635Z,39.90
2022-12-24T07:00:25.011Z,38.42
2022-12-24T07:03:27.847Z,35.03
2022-12-24T07:06:31.246Z,36.65
2022-12-24T07:09:33.868Z,35.42
2022-12-24T07:12:36.897Z,23.70
2022-12-24T07:15:40.187Z,23.90
2022-12-24T07:18:43.713Z,21.63
2022-12-24T07:21:47.717Z,25.90
2022-12-24T07:24:50.879Z,25.73
2022-12-24T07:27:53.593Z,25.42
2022-12-24T07:30:57.792Z,49.65
2022-12-24T07:34:00.836Z,63.23
2022-12-24T07:37:03.966Z,50.75
2022-12-24T07:40:09.827Z,41.83
2022-12-24T07:43:13.035Z,38.63
2022-12-24T07:46:15.758Z,35.63
2022-12-24T07:49:18.909Z,34.17
2022-12-24T07:52:21.728Z,28.87
2022-12-24T07:55:24.714Z,29.98
2022-12-24T07:58:27.814Z,30.95
2022-12-24T08:01:30.843Z,30.52
2022-12-24T08:04:36.390Z,28.30
2022-12-24T08:07:39.203Z,25.77
2022-12-24T08:10:44.758Z,23.20
2022-12-24T08:13:47.490Z,21.50
2022-12-24T08:16:50.464Z,20.02
2022-12-24T08:19:53.131Z,21.40
2022-12-24T08:22:56.032Z,21.42
2022-12-24T08:25:58.675Z,18.70
2022-12-24T08:29:02.159Z,17.02
2022-12-24T08:32:05.141Z,20.62
2022-12-24T08:35:08.368Z,20.73
2022-12-24T08:38:10.925Z,16.92
2022-12-24T08:41:14.171Z,20.70
2022-12-24T08:44:16.716Z,17.92
2022-12-24T08:47:19.776Z,20.20
2022-12-24T08:50:24.078Z,20.73
2022-12-24T08:53:26.981Z,21.92
2022-12-24T08:56:29.696Z,23.70
2022-12-24T08:59:32.587Z,23.52
2022-12-24T09:02:35.823Z,25.60
2022-12-24T09:05:40.372Z,25.27
2022-12-24T09:08:43.109Z,27.73
2022-12-24T09:11:45.961Z,28.23
2022-12-24T09:14:51.013Z,19.37
2022-12-24T09:17:54.066Z,18.25
2022-12-24T09:21:01.561Z,21.90
2022-12-24T09:24:04.997Z,18.80
2022-12-24T09:27:07.837Z,17.98
2022-12-24T09:30:11.457Z,20.08
2022-12-24T09:33:15.157Z,23.60
2022-12-24T09:36:38.028Z,21.47
2022-12-24T09:39:40.537Z,16.67
2022-12-24T09:42:49.046Z,19.10
2022-12-24T09:46:01.229Z,20.37
2022-12-24T09:49:16.061Z,19.80
2022-12-24T09:52:40.194Z,20.37
2022-12-24T09:55:49.200Z,15.18
2022-12-24T09:59:00.104Z,17.33
2022-12-24T10:02:03.253Z,18.23
2022-12-24T10:05:13.015Z,17.17
2022-12-24T10:08:31.728Z,13.60
2022-12-24T10:11:53.685Z,12.75
2022-12-24T10:15:08.383Z,15.13
2022-12-24T10:18:21.469Z,11.90
2022-12-24T10:21:33.689Z,10.95
2022-12-24T10:24:51.028Z,10.63
2022-12-24T10:27:56.016Z,15.40
2022-12-24T10:31:02.956Z,9.45
2022-12-24T10:34:12.665Z,10.77
2022-12-24T10:37:20.410Z,14.87
2022-12-24T10:40:35.132Z,14.00
2022-12-24T10:43:40.145Z,17.65
2022-12-24T10:46:43.102Z,15.10
2022-12-24T10:49:48.558Z,11.48
2022-12-24T10:52:53.695Z,9.77
2022-12-24T10:56:11.747Z,11.17
2022-12-24T10:59:31.686Z,13.05
2022-12-24T11:02:37.008Z,14.07
2022-12-24T11:05:40.342Z,22.15
2022-12-24T11:08:47.439Z,18.85
2022-12-24T11:11:50.227Z,19.73
2022-12-24T11:15:15.002Z,15.32
2022-12-24T11:18:17.667Z,9.75
2022-12-24T11:21:26.964Z,9.13
2022-12-24T11:24:35.026Z,8.25
2022-12-24T11:27:49.632Z,9.60
2022-12-24T11:31:19.731Z,11.75
2022-12-24T11:34:30.656Z,10.90
2022-12-24T11:37:33.191Z,12.07
2022-12-24T11:40:39.338Z,7.57
2022-12-24T11:43:50.557Z,8.73
2022-12-24T11:46:57.183Z,9.63
2022-12-24T11:50:19.778Z,10.30
2022-12-24T11:53:28.456Z,6.72
2022-12-24T11:56:41.851Z,6.25
2022-12-24T11:59:47.339Z,5.57
2022-12-24T12:02:51.402Z,4.95
2022-12-24T12:05:55.647Z,4.60
2022-12-24T12:09:03.611Z,8.52
2022-12-24T12:12:15.845Z,5.82
2022-12-24T12:16:00.417Z,4.87
2022-12-24T12:19:08.658Z,6.53
2022-12-24T12:22:28.506Z,6.18
2022-12-24T12:25:41.865Z,6.62
2022-12-24T12:28:49.707Z,4.55
2022-12-24T12:32:00.279Z,6.03
2022-12-24T12:35:17.145Z,5.78
2022-12-24T12:38:25.643Z,3.72
2022-12-24T12:41:34.457Z,5.65
2022-12-24T12:44:52.513Z,5.47
2022-12-24T12:48:21.301Z,3.77
2022-12-24T12:51:30.433Z,5.55
2022-12-24T12:54:33.243Z,6.20
2022-12-24T12:57:37.772Z,3.67
2022-12-24T13:00:42.473Z,5.07
2022-12-24T13:03:48.180Z,4.93
2022-12-24T13:07:18.953Z,4.47
2022-12-24T13:10:45.655Z,6.10
2022-12-24T13:14:11.174Z,6.53
2022-12-24T13:17:32.521Z,7.72
2022-12-24T13:20:40.344Z,5.83
2022-12-24T13:23:43.236Z,9.68
2022-12-24T13:27:06.202Z,7.07
2022-12-24T13:30:32.244Z,7.93
2022-12-24T13:33:37.508Z,5.62
2022-12-24T13:37:03.975Z,6.50
2022-12-24T13:40:06.790Z,10.27
2022-12-24T13:43:12.353Z,8.15
2022-12-24T13:47:01.029Z,9.27
2022-12-24T13:50:22.038Z,5.82
2022-12-24T13:53:32.140Z,7.23
2022-12-24T13:56:36.742Z,7.55
2022-12-24T13:59:39.720Z,5.95
2022-12-24T14:03:08.088Z,5.95
2022-12-24T14:06:23.103Z,5.15
2022-12-24T14:09:26.051Z,4.50
2022-12-24T14:12:34.213Z,4.93
2022-12-24T14:16:00.692Z,4.47
2022-12-24T14:19:16.061Z,7.25
2022-12-24T14:22:42.082Z,8.88
2022-12-24T14:25:48.472Z,6.10
2022-12-24T14:28:55.866Z,10.95
2022-12-24T14:32:00.534Z,8.95
2022-12-24T14:35:25.949Z,8.82
2022-12-24T14:38:29.685Z,6.90
2022-12-24T14:41:40.045Z,5.30
2022-12-24T14:44:59.791Z,6.62
2022-12-24T14:48:11.503Z,5.68
2022-12-24T14:51:39.335Z,6.80
2022-12-24T14:54:42.999Z,4.47
2022-12-24T14:57:45.788Z,5.57
2022-12-24T15:00:48.769Z,10.07
2022-12-24T15:04:09.915Z,7.60
2022-12-24T15:07:12.666Z,6.60
2022-12-24T15:10:28.541Z,5.07
2022-12-24T15:13:37.951Z,6.80
2022-12-24T15:16:40.970Z,5.57
2022-12-24T15:19:45.207Z,12.02
2022-12-24T15:22:51.378Z,6.07
2022-12-24T15:26:14.163Z,6.65
2022-12-24T15:29:28.807Z,7.60
2022-12-24T15:32:31.535Z,5.82
2022-12-24T15:35:48.594Z,8.85
2022-12-24T15:38:52.516Z,7.87
2022-12-24T15:42:13.515Z,6.32
2022-12-24T15:45:26.654Z,5.60
2022-12-24T15:48:31.595Z,6.10
2022-12-24T15:51:39.365Z,7.15
2022-12-24T15:54:45.216Z,9.40
2022-12-24T15:57:48.013Z,8.00
2022-12-24T16:01:09.573Z,7.57
2022-12-24T16:04:19.352Z,7.45
2022-12-24T16:07:26.545Z,8.93
2022-12-24T16:10:30.005Z,6.43
2022-12-24T16:13:38.323Z,6.03
2022-12-24T16:16:48.433Z,9.47
2022-12-24T16:19:53.840Z,11.45
2022-12-24T16:22:56.691Z,11.27
2022-12-24T16:25:59.431Z,11.12
2022-12-24T16:29:02.548Z,12.75
2022-12-24T16:32:05.266Z,13.90
2022-12-24T16:35:26.428Z,14.85
2022-12-24T16:38:49.206Z,13.48
2022-12-24T16:42:14.496Z,12.37
2022-12-24T16:45:17.518Z,17.42
2022-12-24T16:48:24.199Z,17.20
2022-12-24T16:51:26.806Z,15.15
2022-12-24T16:54:30.120Z,9.07
2022-12-24T16:57:34.123Z,9.60
2022-12-24T17:00:37.391Z,8.05
2022-12-24T17:03:40.037Z,9.80
2022-12-24T17:06:42.995Z,11.55
2022-12-24T17:09:46.158Z,7.53
2022-12-24T17:12:49.100Z,6.22
2022-12-24T17:15:51.858Z,5.00
2022-12-24T17:18:54.703Z,5.10
2022-12-24T17:21:57.244Z,8.32
2022-12-24T17:25:00.200Z,7.47
2022-12-24T17:28:02.812Z,10.10
2022-12-24T17:31:14.020Z,11.18
2022-12-24T17:34:16.569Z,10.17
2022-12-24T17:37:19.549Z,10.95
2022-12-24T17:40:22.225Z,16.45
2022-12-24T17:43:25.385Z,11.82
2022-12-24T17:46:27.936Z,13.77
2022-12-24T17:49:31.772Z,13.03
2022-12-24T17:52:34.979Z,10.02
2022-12-24T17:55:42.109Z,7.90
2022-12-24T17:58:46.312Z,11.57
2022-12-24T18:01:49.276Z,13.15
2022-12-24T18:04:52.255Z,14.57
2022-12-24T18:07:54.807Z,16.33
2022-12-24T18:10:57.929Z,27.55
2022-12-24T18:14:02.161Z,29.52
2022-12-24T18:17:05.220Z,24.90
2022-12-24T18:20:09.127Z,22.87
2022-12-24T18:23:12.286Z,18.55
2022-12-24T18:26:15.523Z,16.90
2022-12-24T18:29:19.797Z,20.33
2022-12-24T18:32:22.413Z,13.60
2022-12-24T18:35:25.252Z,14.50
2022-12-24T18:38:28.021Z,16.27
2022-12-24T18:41:31.121Z,9.95
2022-12-24T18:44:33.617Z,12.32
2022-12-24T18:47:36.579Z,14.18
2022-12-24T18:50:40.564Z,10.93
2022-12-24T18:53:43.821Z,11.43
2022-12-24T18:56:46.436Z,9.75
2022-12-24T18:59:49.685Z,12.20
2022-12-24T19:02:52.283Z,12.23
2022-12-24T19:06:01.808Z,11.57
2022-12-24T19:09:04.455Z,15.15
2022-12-24T19:12:07.546Z,12.65
2022-12-24T19:15:10.584Z,15.35
2022-12-24T19:18:13.887Z,15.45
2022-12-24T19:21:17.712Z,14.37
2022-12-24T19:24:20.690Z,13.10
2022-12-24T19:27:23.193Z,11.60
2022-12-24T19:30:26.013Z,12.70
2022-12-24T19:33:28.812Z,9.38
2022-12-24T19:36:31.627Z,10.00
2022-12-24T19:39:34.838Z,9.30
2022-12-24T19:42:37.651Z,10.07
2022-12-24T19:45:40.209Z,9.60
2022-12-24T19:48:43.969Z,9.23
2022-12-24T19:51:46.526Z,7.57
2022-12-24T19:54:49.302Z,10.95
2022-12-24T19:57:52.540Z,11.12
2022-12-24T20:00:55.733Z,9.07
2022-12-24T20:03:59.064Z,7.45
2022-12-24T20:07:01.619Z,9.83
2022-12-24T20:10:04.701Z,10.70
2022-12-24T20:13:07.833Z,9.25
2022-12-24T20:16:15.782Z,10.80
2022-12-24T20:19:18.283Z,9.15
2022-12-24T20:22:21.514Z,7.40
2022-12-24T20:25:25.019Z,7.20
2022-12-24T20:28:29.001Z,8.02
2022-12-24T20:31:32.139Z,8.77
2022-12-24T20:34:34.995Z,8.80
2022-12-24T20:37:45.662Z,6.57
2022-12-24T20:40:49.373Z,5.12
2022-12-24T20:43:52.147Z,7.03
2022-12-24T20:46:54.911Z,7.97
2022-12-24T20:49:57.510Z,8.73
2022-12-24T20:53:00.469Z,5.80
2022-12-24T20:56:02.965Z,7.72
2022-12-24T20:59:06.168Z,7.75
2022-12-24T21:02:12.454Z,7.57
2022-12-24T21:05:15.610Z,6.50
2022-12-24T21:08:18.267Z,8.80
2022-12-24T21:11:40.614Z,6.75
2022-12-24T21:14:43.114Z,7.80
2022-12-24T21:17:46.713Z,6.85
2022-12-24T21:20:49.793Z,6.70
2022-12-24T21:23:52.731Z,5.43
2022-12-24T21:26:55.393Z,6.22
2022-12-24T21:29:58.488Z,8.65
2022-12-24T21:33:01.164Z,7.50
2022-12-24T21:36:04.550Z,6.18
2022-12-24T21:39:07.070Z,8.23
2022-12-24T21:42:09.939Z,10.07
2022-12-24T21:45:12.584Z,9.70
2022-12-24T21:48:34.410Z,9.05
2022-12-24T21:51:37.256Z,7.05
2022-12-24T21:54:40.100Z,6.53
2022-12-24T21:57:54.734Z,6.57
2022-12-24T22:00:57.747Z,6.55
2022-12-24T22:04:00.827Z,8.57
2022-12-24T22:07:22.540Z,6.40
2022-12-24T22:10:49.652Z,8.17
2022-12-24T22:13:52.140Z,9.45
2022-12-24T22:16:55.125Z,6.03
2022-12-24T22:19:57.893Z,7.55
2022-12-24T22:23:00.822Z,9.07
2022-12-24T22:26:11.419Z,10.47
2022-12-24T22:29:14.785Z,7.22
2022-12-24T22:32:17.442Z,8.93
2022-12-24T22:35:20.332Z,7.12
2022-12-24T22:38:22.928Z,7.47
2022-12-24T22:41:25.715Z,6.77
2022-12-24T22:44:28.817Z,7.18
2022-12-24T22:47:31.734Z,14.48
2022-12-24T22:50:34.343Z,12.13
2022-12-24T22:53:37.503Z,11.93
2022-12-24T22:56:41.522Z,11.83
2022-12-24T22:59:44.844Z,11.45
2022-12-24T23:02:47.863Z,12.45
2022-12-24T23:06:02.345Z,10.60
2022-12-24T23:09:06.694Z,9.73
2022-12-24T23:12:09.711Z,11.80
2022-12-24T23:15:12.380Z,8.07
2022-12-24T23:18:15.521Z,9.15
2022-12-24T23:21:18.672Z,10.40
2022-12-24T23:24:21.536Z,10.43
2022-12-24T23:27:24.127Z,10.90
2022-12-24T23:30:26.938Z,10.63
2022-12-24T23:33:29.924Z,13.05
2022-12-24T23:36:32.985Z,14.23
2022-12-24T23:39:35.599Z,11.32
2022-12-24T23:42:38.403Z,7.90
2022-12-24T23:45:47.513Z,12.60
2022-12-24T23:48:54.092Z,11.35
2022-12-24T23:51:56.775Z,10.98
2022-12-24T23:54:59.631Z,7.70
2022-12-24T23:58:02.531Z,5.70
